createdAt,value
2018-06-24T00:01:04.577Z,13.10
2018-06-24T00:03:32.185Z,13.10
2018-06-24T00:05:59.828Z,13.10
2018-06-24T00:08:27.485Z,13.00
2018-06-24T00:10:55.116Z,13.00
2018-06-24T00:13:22.747Z,13.00
2018-06-24T00:15:50.891Z,13.10
2018-06-24T00:18:18.550Z,13.20
2018-06-24T00:20:46.171Z,13.10
2018-06-24T00:23:13.789Z,13.10
2018-06-24T00:25:42.119Z,13.10
2018-06-24T00:28:10.729Z,13.20
2018-06-24T00:30:38.816Z,13.20
2018-06-24T00:33:06.941Z,13.20
2018-06-24T00:35:34.744Z,13.30
2018-06-24T00:38:02.433Z,13.20
2018-06-24T00:40:30.089Z,13.10
2018-06-24T00:42:57.731Z,12.90
2018-06-24T00:45:25.361Z,12.80
2018-06-24T00:47:53.068Z,12.80
2018-06-24T00:50:20.727Z,12.70
2018-06-24T00:52:48.333Z,12.60
2018-06-24T00:55:16.893Z,12.60
2018-06-24T00:57:44.515Z,12.70
2018-06-24T01:00:14.560Z,12.80
2018-06-24T01:02:42.185Z,12.80
2018-06-24T01:05:10.897Z,12.90
2018-06-24T01:07:38.560Z,13.00
2018-06-24T01:10:06.196Z,13.00
2018-06-24T01:12:33.950Z,13.00
2018-06-24T01:15:01.609Z,13.00
2018-06-24T01:17:29.375Z,12.90
2018-06-24T01:19:58.283Z,13.00
2018-06-24T01:22:26.345Z,13.10
2018-06-24T01:24:54.850Z,13.10
2018-06-24T01:27:23.612Z,13.20
2018-06-24T01:29:51.400Z,13.20
2018-06-24T01:32:19.035Z,13.20
2018-06-24T01:34:46.679Z,13.20
2018-06-24T01:37:14.312Z,13.10
2018-06-24T01:39:42.632Z,13.20
2018-06-24T01:42:10.269Z,13.20
2018-06-24T01:44:37.903Z,13.10
2018-06-24T01:47:05.680Z,13.10
2018-06-24T01:49:34.205Z,13.10
2018-06-24T01:52:04.440Z,13.20
2018-06-24T01:54:32.113Z,13.30
2018-06-24T01:56:59.776Z,13.10
2018-06-24T01:59:27.449Z,13.20
2018-06-24T02:01:55.083Z,13.10
2018-06-24T02:04:22.976Z,13.10
2018-06-24T02:06:52.156Z,13.20
2018-06-24T02:09:19.781Z,12.90
2018-06-24T02:11:47.464Z,13.00
2018-06-24T02:14:15.080Z,13.00
2018-06-24T02:16:42.717Z,14.10
2018-06-24T02:19:11.680Z,13.00
2018-06-24T02:21:40.593Z,13.00
2018-06-24T02:24:08.429Z,12.80
2018-06-24T02:26:36.212Z,12.80
2018-06-24T02:29:04.864Z,12.80
2018-06-24T02:31:32.469Z,12.90
2018-06-24T02:34:00.105Z,13.80
2018-06-24T02:36:28.808Z,12.90
2018-06-24T02:38:56.421Z,12.70
2018-06-24T02:41:24.085Z,12.70
2018-06-24T02:43:51.717Z,12.80
2018-06-24T02:46:19.928Z,12.80
2018-06-24T02:48:47.509Z,12.90
2018-06-24T02:51:15.176Z,12.90
2018-06-24T02:53:43.005Z,13.00
2018-06-24T02:56:10.557Z,13.10
2018-06-24T02:58:38.265Z,13.10
2018-06-24T03:01:05.869Z,13.10
2018-06-24T03:06:01.993Z,13.10
2018-06-24T03:08:29.612Z,13.10
2018-06-24T03:10:57.273Z,13.10
2018-06-24T03:13:25.014Z,13.10
2018-06-24T03:15:52.720Z,13.20
2018-06-24T03:18:20.393Z,13.10
2018-06-24T03:20:48.018Z,13.20
2018-06-24T03:23:15.798Z,13.20
2018-06-24T03:25:43.428Z,13.10
2018-06-24T03:28:11.061Z,13.00
2018-06-24T03:30:38.692Z,13.10
2018-06-24T03:33:06.345Z,13.00
2018-06-24T03:35:33.976Z,13.00
2018-06-24T03:38:01.581Z,12.90
2018-06-24T03:40:29.208Z,12.70
2018-06-24T03:42:57.409Z,12.70
2018-06-24T03:45:25.879Z,12.60
2018-06-24T03:47:53.516Z,12.60
2018-06-24T03:52:48.781Z,12.60
2018-06-24T03:55:16.407Z,12.70
2018-06-24T03:57:44.016Z,12.80
2018-06-24T04:00:11.665Z,13.00
2018-06-24T04:02:39.344Z,13.10
2018-06-24T04:05:06.969Z,13.20
2018-06-24T04:07:34.611Z,13.20
2018-06-24T04:10:02.951Z,13.20
2018-06-24T04:12:30.649Z,13.30
2018-06-24T04:14:58.300Z,13.20
2018-06-24T04:17:26.020Z,13.30
2018-06-24T04:19:53.641Z,13.40
2018-06-24T04:22:21.534Z,13.40
2018-06-24T04:24:49.128Z,13.40
2018-06-24T04:27:16.757Z,13.50
2018-06-24T04:29:44.393Z,13.50
2018-06-24T04:32:12.012Z,13.60
2018-06-24T04:34:39.633Z,13.70
2018-06-24T04:37:07.314Z,13.70
2018-06-24T04:39:34.945Z,13.70
2018-06-24T04:42:02.579Z,13.70
2018-06-24T04:44:30.172Z,13.80
2018-06-24T04:46:57.813Z,13.80
2018-06-24T04:49:26.033Z,13.90
2018-06-24T04:51:53.749Z,14.00
2018-06-24T04:54:21.380Z,13.90
2018-06-24T04:56:48.984Z,13.80
2018-06-24T04:59:16.664Z,13.70
2018-06-24T05:01:44.288Z,13.80
2018-06-24T05:04:11.923Z,13.90
2018-06-24T05:06:39.689Z,13.90
2018-06-24T05:09:08.561Z,13.80
2018-06-24T05:11:36.207Z,13.60
2018-06-24T05:14:04.681Z,13.60
2018-06-24T05:16:33.098Z,13.70
2018-06-24T05:19:01.364Z,13.80
2018-06-24T05:21:29.129Z,13.90
2018-06-24T05:23:56.902Z,14.00
2018-06-24T05:26:24.765Z,14.00
2018-06-24T05:28:52.375Z,14.20
2018-06-24T05:31:19.992Z,14.30
2018-06-24T05:33:48.554Z,14.30
2018-06-24T05:36:16.181Z,14.40
2018-06-24T05:38:43.829Z,14.40
2018-06-24T05:41:11.520Z,14.50
2018-06-24T05:43:39.167Z,14.50
2018-06-24T05:46:06.788Z,14.60
2018-06-24T05:48:34.453Z,14.60
2018-06-24T05:51:03.180Z,14.70
2018-06-24T05:53:30.809Z,14.80
2018-06-24T05:55:58.416Z,14.80
2018-06-24T05:58:26.045Z,15.00
2018-06-24T06:00:53.697Z,15.10
2018-06-24T06:03:21.376Z,15.30
2018-06-24T06:05:48.994Z,15.40
2018-06-24T06:08:16.676Z,15.50
2018-06-24T06:10:44.289Z,15.60
2018-06-24T06:13:11.896Z,15.60
2018-06-24T06:15:39.525Z,15.60
2018-06-24T06:18:07.168Z,15.60
2018-06-24T06:20:34.834Z,15.70
2018-06-24T06:23:02.501Z,16.00
2018-06-24T06:25:30.137Z,16.40
2018-06-24T06:27:57.754Z,16.60
2018-06-24T06:30:25.493Z,16.80
2018-06-24T06:32:53.072Z,17.00
2018-06-24T06:35:20.728Z,17.10
2018-06-24T06:37:48.334Z,16.90
2018-06-24T06:40:15.992Z,17.90
2018-06-24T06:42:44.657Z,17.10
2018-06-24T06:45:12.429Z,17.40
2018-06-24T06:47:40.001Z,17.70
2018-06-24T06:50:07.635Z,17.90
2018-06-24T06:52:36.250Z,18.20
2018-06-24T06:55:04.556Z,18.50
2018-06-24T06:57:32.154Z,18.80
2018-06-24T06:59:59.803Z,19.10
2018-06-24T07:02:27.433Z,19.20
2018-06-24T07:04:55.042Z,19.40
2018-06-24T07:07:22.661Z,19.40
2018-06-24T07:09:50.249Z,19.30
2018-06-24T07:12:17.888Z,18.90
2018-06-24T07:14:45.519Z,18.60
2018-06-24T07:17:13.124Z,18.30
2018-06-24T07:19:40.900Z,18.00
2018-06-24T07:22:08.667Z,18.00
2018-06-24T07:24:37.345Z,17.90
2018-06-24T07:27:05.004Z,18.10
2018-06-24T07:29:32.624Z,18.40
2018-06-24T07:32:00.232Z,18.50
2018-06-24T07:34:28.884Z,18.20
2018-06-24T07:36:57.501Z,18.00
2018-06-24T07:39:25.159Z,18.20
2018-06-24T07:41:52.764Z,18.20
2018-06-24T07:46:48.673Z,18.60
2018-06-24T07:49:16.300Z,19.10
2018-06-24T07:51:44.728Z,18.90
2018-06-24T07:54:12.492Z,18.90
2018-06-24T07:56:40.932Z,18.70
2018-06-24T07:59:08.549Z,18.90
2018-06-24T08:01:36.156Z,19.00
2018-06-24T08:04:03.956Z,19.20
2018-06-24T08:06:31.776Z,19.40
2018-06-24T08:08:59.381Z,19.50
2018-06-24T08:11:27.010Z,19.50
2018-06-24T08:13:54.636Z,19.50
2018-06-24T08:16:22.236Z,19.80
2018-06-24T08:18:49.832Z,20.00
2018-06-24T08:21:18.101Z,19.90
2018-06-24T08:23:45.736Z,19.80
2018-06-24T08:26:13.384Z,19.80
2018-06-24T08:28:41.017Z,20.00
2018-06-24T08:31:09.002Z,20.00
2018-06-24T08:33:36.624Z,19.90
2018-06-24T08:36:04.264Z,20.10
2018-06-24T08:38:31.859Z,20.50
2018-06-24T08:40:59.490Z,21.10
2018-06-24T08:43:27.116Z,21.20
2018-06-24T08:45:54.737Z,21.40
2018-06-24T08:48:22.377Z,21.30
2018-06-24T08:50:50.000Z,21.40
2018-06-24T08:53:18.212Z,21.50
2018-06-24T08:55:45.824Z,20.90
2018-06-24T08:58:14.446Z,21.00
2018-06-24T09:00:42.104Z,21.00
2018-06-24T09:03:09.740Z,20.60
2018-06-24T09:05:38.381Z,20.40
2018-06-24T09:08:06.079Z,20.10
2018-06-24T09:10:33.700Z,20.20
2018-06-24T09:13:01.322Z,20.10
2018-06-24T09:15:28.951Z,20.10
2018-06-24T09:17:56.600Z,20.40
2018-06-24T09:20:24.835Z,20.40
2018-06-24T09:22:52.472Z,20.50
2018-06-24T09:25:21.093Z,20.50
2018-06-24T09:27:48.725Z,20.50
2018-06-24T09:30:16.352Z,20.70
2018-06-24T09:32:43.980Z,20.80
2018-06-24T09:35:11.601Z,20.30
2018-06-24T09:37:39.233Z,20.30
2018-06-24T09:40:06.877Z,20.50
2018-06-24T09:42:34.532Z,20.30
2018-06-24T09:45:02.149Z,19.80
2018-06-24T09:47:30.459Z,19.90
2018-06-24T09:49:58.348Z,20.20
2018-06-24T09:52:29.039Z,20.50
2018-06-24T09:54:56.930Z,21.10
2018-06-24T09:57:26.856Z,21.10
2018-06-24T09:59:54.513Z,21.40
2018-06-24T10:02:22.176Z,21.70
2018-06-24T10:04:49.785Z,22.10
2018-06-24T10:07:17.396Z,22.00
2018-06-24T10:09:45.021Z,22.00
2018-06-24T10:12:12.649Z,21.80
2018-06-24T10:14:40.320Z,21.50
2018-06-24T10:17:08.293Z,21.30
2018-06-24T10:19:36.980Z,21.20
2018-06-24T10:22:04.600Z,21.10
2018-06-24T10:24:32.252Z,21.10
2018-06-24T10:27:00.860Z,21.30
2018-06-24T10:29:28.493Z,21.20
2018-06-24T10:31:56.088Z,21.50
2018-06-24T10:34:23.726Z,21.80
2018-06-24T10:36:51.332Z,21.80
2018-06-24T10:39:18.958Z,21.60
2018-06-24T10:41:46.583Z,21.50
2018-06-24T10:44:14.229Z,21.60
2018-06-24T10:46:41.852Z,21.60
2018-06-24T10:49:09.494Z,21.50
2018-06-24T10:51:37.102Z,21.20
2018-06-24T10:54:04.752Z,20.90
2018-06-24T10:56:32.349Z,20.70
2018-06-24T10:58:59.957Z,20.70
2018-06-24T11:01:27.569Z,21.30
2018-06-24T11:03:55.205Z,21.90
2018-06-24T11:06:22.826Z,21.90
2018-06-24T11:08:50.548Z,22.00
2018-06-24T11:11:18.172Z,22.00
2018-06-24T11:13:45.840Z,22.00
2018-06-24T11:16:13.477Z,22.10
2018-06-24T11:18:42.365Z,22.30
2018-06-24T11:21:10.013Z,22.40
2018-06-24T11:23:37.640Z,22.40
2018-06-24T11:26:06.331Z,22.50
2018-06-24T11:28:33.973Z,22.40
2018-06-24T11:31:01.601Z,22.50
2018-06-24T11:33:29.224Z,22.70
2018-06-24T11:35:57.456Z,23.00
2018-06-24T11:38:25.540Z,23.30
2018-06-24T11:40:53.139Z,23.20
2018-06-24T11:43:20.784Z,23.50
2018-06-24T11:45:49.017Z,23.70
2018-06-24T11:48:16.693Z,24.00
2018-06-24T11:50:45.357Z,24.00
2018-06-24T11:53:12.964Z,24.00
2018-06-24T11:55:40.728Z,23.90
2018-06-24T11:58:10.281Z,24.00
2018-06-24T12:00:38.243Z,23.90
2018-06-24T12:03:05.852Z,23.40
2018-06-24T12:05:33.505Z,22.90
2018-06-24T12:08:01.122Z,22.80
2018-06-24T12:10:28.752Z,23.20
2018-06-24T12:12:56.457Z,23.40
2018-06-24T12:15:24.330Z,23.40
2018-06-24T12:17:52.969Z,23.70
2018-06-24T12:20:20.572Z,23.80
2018-06-24T12:22:48.166Z,24.10
2018-06-24T12:25:15.788Z,24.10
2018-06-24T12:27:43.384Z,23.80
2018-06-24T12:30:10.992Z,23.90
2018-06-24T12:32:39.588Z,23.90
2018-06-24T12:35:07.221Z,23.70
2018-06-24T12:37:34.821Z,23.80
2018-06-24T12:40:02.513Z,23.60
2018-06-24T12:42:30.146Z,23.40
2018-06-24T12:44:57.779Z,23.40
2018-06-24T12:49:54.694Z,22.80
2018-06-24T12:52:22.306Z,22.30
2018-06-24T12:54:49.954Z,22.40
2018-06-24T12:57:18.620Z,22.50
2018-06-24T12:59:46.575Z,23.00
2018-06-24T13:02:13.963Z,23.90
2018-06-24T13:04:41.832Z,24.60
2018-06-24T13:07:09.451Z,25.00
2018-06-24T13:09:37.084Z,25.40
2018-06-24T13:12:04.755Z,25.50
2018-06-24T13:14:32.420Z,24.90
2018-06-24T13:17:00.046Z,25.20
2018-06-24T13:19:27.672Z,25.20
2018-06-24T13:21:56.304Z,25.30
2018-06-24T13:24:23.939Z,25.10
2018-06-24T13:26:51.611Z,25.20
2018-06-24T13:29:19.274Z,25.50
2018-06-24T13:31:46.856Z,25.40
2018-06-24T13:34:14.469Z,25.20
2018-06-24T13:36:42.102Z,25.50
2018-06-24T13:39:10.608Z,25.90
2018-06-24T13:41:38.382Z,25.90
2018-06-24T13:44:06.268Z,26.20
2018-06-24T13:46:33.853Z,26.70
2018-06-24T13:49:01.452Z,27.80
2018-06-24T13:51:29.312Z,28.40
2018-06-24T13:53:57.607Z,28.60
2018-06-24T13:56:25.236Z,29.90
2018-06-24T13:58:52.822Z,30.70
2018-06-24T14:01:20.455Z,30.70
2018-06-24T14:03:48.084Z,30.90
2018-06-24T14:08:43.885Z,32.10
2018-06-24T14:11:11.476Z,33.00
2018-06-24T14:13:39.076Z,33.00
2018-06-24T14:16:06.716Z,31.60
2018-06-24T14:18:34.316Z,30.40
2018-06-24T14:21:01.990Z,29.30
2018-06-24T14:23:29.723Z,27.50
2018-06-24T14:25:57.288Z,26.30
2018-06-24T14:28:25.676Z,25.70
2018-06-24T14:30:53.261Z,25.50
2018-06-24T14:33:20.897Z,25.60
2018-06-24T14:35:48.532Z,25.80
2018-06-24T14:38:16.165Z,26.00
2018-06-24T14:40:43.829Z,26.40
2018-06-24T14:43:11.474Z,27.30
2018-06-24T14:45:39.100Z,28.40
2018-06-24T14:48:06.871Z,29.80
2018-06-24T14:50:34.497Z,30.80
2018-06-24T14:53:02.125Z,31.70
2018-06-24T14:55:29.779Z,32.10
2018-06-24T14:57:57.342Z,31.90
2018-06-24T15:00:24.945Z,31.60
2018-06-24T15:02:52.633Z,30.50
2018-06-24T15:05:20.286Z,32.80
2018-06-24T15:07:48.088Z,32.30
2018-06-24T15:10:15.761Z,32.10
2018-06-24T15:12:46.250Z,31.00
2018-06-24T15:15:13.877Z,29.40
2018-06-24T15:17:41.528Z,28.30
2018-06-24T15:20:09.158Z,27.50
2018-06-24T15:22:36.769Z,27.00
2018-06-24T15:25:05.678Z,26.30
2018-06-24T15:27:33.269Z,25.60
2018-06-24T15:30:01.046Z,25.20
2018-06-24T15:32:28.638Z,25.20
2018-06-24T15:34:56.913Z,25.50
2018-06-24T15:37:24.557Z,25.00
2018-06-24T15:39:52.205Z,24.10
2018-06-24T15:42:19.811Z,23.70
2018-06-24T15:44:47.471Z,24.40
2018-06-24T15:47:15.226Z,25.70
2018-06-24T15:49:43.244Z,27.70
2018-06-24T15:52:10.872Z,28.90
2018-06-24T15:54:38.493Z,28.80
2018-06-24T15:57:06.128Z,28.50
2018-06-24T15:59:33.716Z,28.40
2018-06-24T16:02:01.342Z,28.10
2018-06-24T16:04:28.962Z,26.40
2018-06-24T16:06:56.593Z,25.50
2018-06-24T16:09:25.004Z,25.00
2018-06-24T16:11:52.638Z,24.70
2018-06-24T16:14:20.296Z,24.60
2018-06-24T16:16:47.936Z,25.20
2018-06-24T16:19:15.580Z,26.80
2018-06-24T16:21:43.240Z,27.90
2018-06-24T16:24:10.824Z,27.50
2018-06-24T16:26:38.520Z,26.70
2018-06-24T16:29:06.152Z,26.20
2018-06-24T16:31:33.744Z,25.50
2018-06-24T16:34:01.360Z,25.00
2018-06-24T16:36:28.988Z,24.40
2018-06-24T16:38:56.608Z,24.00
2018-06-24T16:41:25.085Z,23.60
2018-06-24T16:43:53.312Z,23.50
2018-06-24T16:46:21.996Z,23.40
2018-06-24T16:48:49.631Z,23.20
2018-06-24T16:51:17.278Z,23.10
2018-06-24T16:53:44.917Z,23.10
2018-06-24T16:56:12.536Z,22.70
2018-06-24T16:58:40.399Z,22.90
2018-06-24T17:01:07.808Z,22.60
2018-06-24T17:03:35.448Z,22.60
2018-06-24T17:06:03.074Z,22.60
2018-06-24T17:08:31.308Z,22.60
2018-06-24T17:10:58.975Z,22.60
2018-06-24T17:13:26.584Z,22.40
2018-06-24T17:15:54.201Z,22.30
2018-06-24T17:18:22.830Z,22.20
2018-06-24T17:20:50.445Z,22.20
2018-06-24T17:23:18.105Z,22.00
2018-06-24T17:25:45.749Z,21.80
2018-06-24T17:28:13.447Z,21.80
2018-06-24T17:30:41.098Z,21.70
2018-06-24T17:33:08.749Z,21.60
2018-06-24T17:35:36.389Z,21.50
2018-06-24T17:38:04.066Z,21.30
2018-06-24T17:40:32.791Z,21.30
2018-06-24T17:43:00.438Z,21.40
2018-06-24T17:45:28.131Z,21.40
2018-06-24T17:47:57.383Z,21.40
2018-06-24T17:50:25.000Z,21.30
2018-06-24T17:52:52.677Z,21.20
2018-06-24T17:55:20.312Z,21.10
2018-06-24T17:57:47.925Z,20.90
2018-06-24T18:00:16.561Z,20.60
2018-06-24T18:02:50.852Z,20.30
2018-06-24T18:05:18.488Z,20.10
2018-06-24T18:07:46.096Z,19.80
2018-06-24T18:10:14.107Z,19.70
2018-06-24T18:12:47.133Z,19.50
2018-06-24T18:15:15.674Z,19.40
2018-06-24T18:17:43.228Z,19.30
2018-06-24T18:20:10.821Z,19.00
2018-06-24T18:22:38.404Z,18.90
2018-06-24T18:25:06.020Z,18.70
2018-06-24T18:27:33.595Z,18.60
2018-06-24T18:30:01.205Z,18.50
2018-06-24T18:32:28.797Z,18.50
2018-06-24T18:34:56.363Z,18.40
2018-06-24T18:37:24.028Z,18.20
2018-06-24T18:39:52.361Z,18.20
2018-06-24T18:42:19.946Z,18.10
2018-06-24T18:44:48.557Z,18.00
2018-06-24T18:47:16.180Z,18.00
2018-06-24T18:49:43.759Z,17.90
2018-06-24T18:52:11.324Z,17.90
2018-06-24T18:54:38.920Z,17.70
2018-06-24T18:57:06.518Z,17.60
2018-06-24T18:59:34.224Z,17.50
2018-06-24T19:02:01.846Z,17.50
2018-06-24T19:04:29.474Z,17.50
2018-06-24T19:06:57.065Z,17.50
2018-06-24T19:09:24.665Z,17.50
2018-06-24T19:11:52.348Z,17.40
2018-06-24T19:14:19.930Z,17.40
2018-06-24T19:16:47.533Z,17.50
2018-06-24T19:19:15.187Z,17.40
2018-06-24T19:21:42.784Z,17.40
2018-06-24T19:24:10.401Z,17.40
2018-06-24T19:26:38.006Z,17.30
2018-06-24T19:29:05.630Z,17.40
2018-06-24T19:31:33.905Z,17.20
2018-06-24T19:34:01.510Z,17.20
2018-06-24T19:36:29.136Z,17.20
2018-06-24T19:38:56.790Z,17.20
2018-06-24T19:41:24.376Z,17.00
2018-06-24T19:43:51.995Z,16.90
2018-06-24T19:46:19.572Z,16.80
2018-06-24T19:48:47.224Z,16.70
2018-06-24T19:51:14.808Z,16.60
2018-06-24T19:53:42.388Z,16.60
2018-06-24T19:56:09.992Z,16.60
2018-06-24T19:58:37.596Z,16.60
2018-06-24T20:01:05.216Z,16.70
2018-06-24T20:03:32.788Z,16.50
2018-06-24T20:06:00.382Z,16.50
2018-06-24T20:08:27.956Z,16.50
2018-06-24T20:10:55.542Z,16.50
2018-06-24T20:13:23.140Z,16.40
2018-06-24T20:15:51.512Z,16.30
2018-06-24T20:18:19.165Z,16.30
2018-06-24T20:20:46.793Z,16.20
2018-06-24T20:23:14.385Z,16.10
2018-06-24T20:25:41.968Z,15.90
2018-06-24T20:28:09.600Z,15.80
2018-06-24T20:30:37.176Z,15.80
2018-06-24T20:33:05.804Z,15.80
2018-06-24T20:35:33.565Z,15.80
2018-06-24T20:38:01.664Z,15.80
2018-06-24T20:40:29.248Z,15.70
2018-06-24T20:42:56.839Z,15.60
2018-06-24T20:45:24.434Z,15.70
2018-06-24T20:47:52.084Z,15.60
2018-06-24T20:50:19.833Z,15.50
2018-06-24T20:52:47.298Z,15.50
2018-06-24T20:55:14.903Z,15.50
2018-06-24T20:57:42.495Z,15.50
2018-06-24T21:00:10.111Z,15.50
2018-06-24T21:02:37.678Z,15.60
2018-06-24T21:05:05.481Z,15.50
2018-06-24T21:07:33.076Z,15.30
2018-06-24T21:10:00.661Z,15.30
2018-06-24T21:12:28.284Z,15.30
2018-06-24T21:14:55.881Z,15.30
2018-06-24T21:17:23.524Z,15.30
2018-06-24T21:19:51.132Z,15.30
2018-06-24T21:22:18.720Z,15.40
2018-06-24T21:24:46.311Z,15.30
2018-06-24T21:27:13.960Z,15.30
2018-06-24T21:29:41.564Z,15.20
2018-06-24T21:32:09.279Z,15.20
2018-06-24T21:34:36.867Z,15.10
2018-06-24T21:37:05.508Z,15.10
2018-06-24T21:39:33.713Z,15.00
2018-06-24T21:42:01.292Z,15.00
2018-06-24T21:44:28.880Z,15.00
2018-06-24T21:46:56.458Z,14.90
2018-06-24T21:49:24.043Z,14.90
2018-06-24T21:51:52.819Z,14.80
2018-06-24T21:54:20.438Z,14.80
2018-06-24T21:56:48.356Z,14.80
2018-06-24T21:59:16.243Z,14.80
2018-06-24T22:01:43.833Z,14.70
2018-06-24T22:04:12.024Z,14.80
2018-06-24T22:06:40.210Z,14.70
2018-06-24T22:09:09.579Z,14.80
2018-06-24T22:11:37.301Z,14.70
2018-06-24T22:14:05.057Z,14.70
2018-06-24T22:16:32.689Z,14.70
2018-06-24T22:19:00.264Z,14.80
2018-06-24T22:21:27.889Z,14.70
2018-06-24T22:26:23.084Z,14.70
2018-06-24T22:28:50.806Z,14.60
2018-06-24T22:31:18.424Z,14.60
2018-06-24T22:33:46.071Z,14.50
2018-06-24T22:36:13.672Z,14.50
2018-06-24T22:38:41.264Z,14.60
2018-06-24T22:41:08.856Z,14.50
2018-06-24T22:43:36.442Z,14.40
2018-06-24T22:46:04.056Z,14.40
2018-06-24T22:48:31.633Z,14.50
2018-06-24T22:50:59.229Z,14.40
2018-06-24T22:53:26.823Z,14.40
2018-06-24T22:55:54.456Z,14.40
2018-06-24T22:58:22.049Z,14.40
2018-06-24T23:00:49.718Z,14.60
2018-06-24T23:03:17.358Z,14.50
2018-06-24T23:05:44.964Z,14.40
2018-06-24T23:08:12.540Z,14.30
2018-06-24T23:10:40.889Z,14.40
2018-06-24T23:13:08.481Z,14.30
2018-06-24T23:15:36.136Z,14.40
2018-06-24T23:18:05.444Z,14.40
2018-06-24T23:20:33.016Z,14.30
2018-06-24T23:23:00.613Z,14.40
2018-06-24T23:25:28.359Z,14.50
2018-06-24T23:27:55.988Z,14.60
2018-06-24T23:30:23.607Z,14.60
2018-06-24T23:32:51.221Z,14.70
2018-06-24T23:35:18.812Z,14.70
2018-06-24T23:37:46.389Z,14.80
2018-06-24T23:40:13.989Z,14.80
2018-06-24T23:42:42.245Z,14.80
2018-06-24T23:45:09.895Z,14.80
2018-06-24T23:47:39.516Z,14.90
2018-06-24T23:50:07.128Z,14.90
2018-06-24T23:52:34.733Z,14.80
2018-06-24T23:55:02.313Z,14.90
2018-06-24T23:57:29.924Z,14.90
2018-06-24T23:59:57.528Z,14.80
